Time;durP1;ratioP1;P1;durP2;ratioP2;P2;SDS_P1;SDS_P2;PMS_P1;PMS_P2;Temp;Humidity;BMP_temperature;BMP_pressure;BME280_temperature;BME280_humidity;BME280_pressure;Samples;Min_cycle;Max_cycle;Signal;HPM_P1;HPM_P2
2021/12/21 00:01:15;;;;;;;2.10;0.67;;;-2.40;99.90;;;;;;5071476;28;20204;-72
2021/12/21 00:03:40;;;;;;;3.03;1.03;;;-2.40;99.90;;;;;;5072290;28;20596;-72
2021/12/21 00:06:06;;;;;;;0.10;0.10;;;-2.40;99.90;;;;;;5071501;28;20667;-72
2021/12/21 00:08:32;;;;;;;0.10;0.10;;;-2.30;99.90;;;;;;5071658;28;20643;-72
2021/12/21 00:10:59;;;;;;;1.30;0.80;;;-2.20;99.90;;;;;;5071507;28;20195;-72
2021/12/21 00:13:54;;;;;;;4.60;2.00;;;-2.20;99.90;;;;;;5071220;28;20204;-72
2021/12/21 00:26:31;;;;;;;0.07;0.07;;;-2.10;99.90;;;;;;5071330;28;20181;-72
2021/12/21 00:31:24;;;;;;;0.10;0.10;;;-2.20;99.90;;;;;;5077672;28;20196;-72
2021/12/21 00:33:50;;;;;;;0.53;0.53;;;-2.20;99.90;;;;;;5071193;28;20210;-72
2021/12/21 00:36:18;;;;;;;0.10;0.10;;;-2.20;99.90;;;;;;5070797;28;20760;-72
2021/12/21 00:38:45;;;;;;;0.30;0.30;;;-2.20;99.90;;;;;;5071564;28;20524;-72
2021/12/21 00:41:11;;;;;;;1.07;1.07;;;-2.20;99.90;;;;;;5071799;28;20548;-71
2021/12/21 00:43:36;;;;;;;0.30;0.30;;;-2.20;99.90;;;;;;5071509;28;20187;-72
2021/12/21 00:46:02;;;;;;;3.60;2.17;;;-2.30;99.90;;;;;;5053313;28;20180;-72
2021/12/21 00:48:30;;;;;;;5.83;2.97;;;-2.30;99.90;;;;;;5070986;28;20179;-72
2021/12/21 00:50:58;;;;;;;0.10;0.10;;;-2.40;99.90;;;;;;5071018;28;20655;-71
2021/12/21 00:53:25;;;;;;;0.10;0.10;;;-2.40;99.90;;;;;;5070903;28;20298;-72
2021/12/21 00:55:51;;;;;;;0.23;0.23;;;-2.50;99.90;;;;;;5071263;28;20621;-72
2021/12/21 00:58:17;;;;;;;2.23;1.63;;;-2.50;99.90;;;;;;5071456;28;20200;-71
2021/12/21 01:00:43;;;;;;;0.10;0.10;;;-2.60;99.90;;;;;;5070895;28;20200;-72
2021/12/21 01:03:11;;;;;;;0.23;0.23;;;-2.70;99.90;;;;;;5071204;28;20204;-71
2021/12/21 01:08:19;;;;;;;0.20;0.20;;;-2.80;99.90;;;;;;5071463;28;20263;-71
2021/12/21 01:11:50;;;;;;;0.37;0.37;;;-2.80;99.90;;;;;;5053068;28;20183;-71
2021/12/21 01:13:51;;;;;;;0.43;0.43;;;-2.80;99.90;;;;;;5060922;28;20690;-71
2021/12/21 01:16:31;;;;;;;0.00;0.00;;;-2.80;99.90;;;;;;5074656;28;20185;-71
2021/12/21 01:19:20;;;;;;;0.27;0.27;;;-2.80;99.90;;;;;;5074520;28;20169;-71
2021/12/21 01:22:11;;;;;;;0.10;0.10;;;-2.80;99.90;;;;;;5074984;28;20265;-71
2021/12/21 01:29:52;;;;;;;0.40;0.40;;;-3.00;99.90;;;;;;5074512;28;20258;-71
2021/12/21 01:32:55;;;;;;;0.30;0.30;;;-3.00;99.90;;;;;;5074290;28;20270;-71
2021/12/21 01:35:13;;;;;;;2.03;1.40;;;-3.10;99.90;;;;;;5073653;28;20192;-71
2021/12/21 01:43:08;;;;;;;0.10;0.10;;;-3.20;99.90;;;;;;5073777;28;20237;-71
2021/12/21 01:51:03;;;;;;;1.00;1.00;;;-3.30;99.90;;;;;;5073577;28;20189;-71
2021/12/21 01:53:29;;;;;;;2.73;1.43;;;-3.30;99.90;;;;;;5073654;28;20199;-72
2021/12/21 01:55:55;;;;;;;0.40;0.40;;;-3.30;99.90;;;;;;5073331;28;20192;-72
2021/12/21 01:58:21;;;;;;;1.20;1.20;;;-3.30;99.90;;;;;;5073658;28;20184;-72
2021/12/21 02:00:47;;;;;;;0.23;0.23;;;-3.20;99.90;;;;;;5073914;28;20208;-72
2021/12/21 02:03:13;;;;;;;1.57;1.47;;;-3.20;99.90;;;;;;5073383;28;20189;-72
2021/12/21 02:05:38;;;;;;;0.20;0.20;;;-3.10;99.90;;;;;;5073241;28;20190;-71
2021/12/21 02:08:05;;;;;;;0.30;0.30;;;-3.10;99.90;;;;;;5073169;28;20174;-72
2021/12/21 02:10:31;;;;;;;0.20;0.20;;;-3.10;99.90;;;;;;5073955;28;20259;-72
2021/12/21 02:12:57;;;;;;;0.73;0.73;;;-3.00;99.90;;;;;;5073274;28;20607;-71
2021/12/21 02:15:24;;;;;;;0.00;0.00;;;-3.00;99.90;;;;;;5073331;28;20181;-72
2021/12/21 02:20:39;;;;;;;0.30;0.30;;;-3.00;99.90;;;;;;5073027;28;20291;-72
2021/12/21 02:23:49;;;;;;;0.97;0.97;;;-3.00;99.90;;;;;;5054806;28;20193;-72
2021/12/21 02:28:44;;;;;;;0.60;0.60;;;-3.20;99.90;;;;;;5073169;28;20206;-72
2021/12/21 02:31:09;;;;;;;0.30;0.30;;;-3.30;99.90;;;;;;5072737;28;20726;-72
2021/12/21 02:33:35;;;;;;;0.13;0.13;;;-3.30;99.90;;;;;;5073178;28;20183;-71
2021/12/21 02:36:01;;;;;;;0.00;0.00;;;-3.40;99.90;;;;;;5072661;28;20261;-72
2021/12/21 02:38:27;;;;;;;0.10;0.10;;;-3.40;99.90;;;;;;5054969;28;20328;-71
2021/12/21 02:40:53;;;;;;;0.27;0.27;;;-3.50;99.90;;;;;;5072773;28;20211;-72
2021/12/21 02:43:19;;;;;;;0.10;0.10;;;-3.50;99.90;;;;;;5072516;28;20571;-72
2021/12/21 02:45:45;;;;;;;0.43;0.43;;;-3.50;99.90;;;;;;5072608;28;20179;-70
2021/12/21 02:48:10;;;;;;;0.10;0.10;;;-3.50;99.90;;;;;;5072574;28;20548;-72
2021/12/21 02:50:38;;;;;;;0.53;0.53;;;-3.50;99.90;;;;;;5054723;28;20190;-72
2021/12/21 02:53:04;;;;;;;0.50;0.50;;;-3.60;99.90;;;;;;5072454;28;20213;-71
2021/12/21 02:55:30;;;;;;;0.30;0.30;;;-3.60;99.90;;;;;;5054617;28;20187;-72
2021/12/21 02:57:57;;;;;;;0.17;0.17;;;-3.70;99.90;;;;;;5071962;28;20499;-72
2021/12/21 03:00:27;;;;;;;0.30;0.23;;;-3.70;99.90;;;;;;5054478;28;20199;-72
2021/12/21 03:02:53;;;;;;;0.00;0.00;;;-3.70;99.90;;;;;;5072513;28;20201;-71
2021/12/21 03:05:19;;;;;;;0.10;0.10;;;-3.80;99.90;;;;;;5072461;28;20211;-72
2021/12/21 03:10:16;;;;;;;0.47;0.47;;;-3.80;99.90;;;;;;5072297;28;20174;-72
2021/12/21 03:15:30;;;;;;;0.00;0.00;;;-3.80;99.90;;;;;;5072341;28;20566;-72
2021/12/21 03:17:57;;;;;;;0.30;0.30;;;-3.80;99.90;;;;;;5071794;28;20178;-72
2021/12/21 03:20:24;;;;;;;0.20;0.20;;;-3.70;99.90;;;;;;5072105;28;20206;-72
2021/12/21 03:22:51;;;;;;;0.10;0.10;;;-3.70;99.90;;;;;;5071776;28;20198;-72
2021/12/21 03:25:18;;;;;;;2.30;0.40;;;-3.80;99.90;;;;;;5071947;28;20205;-72
2021/12/21 03:27:43;;;;;;;0.00;0.00;;;-3.80;99.90;;;;;;5071379;28;20188;-72
2021/12/21 03:30:12;;;;;;;0.20;0.20;;;-3.80;99.90;;;;;;5071941;28;20563;-72
2021/12/21 03:32:37;;;;;;;0.20;0.20;;;-3.80;99.90;;;;;;5071580;28;20193;-72
2021/12/21 03:35:04;;;;;;;0.30;0.30;;;-3.80;99.90;;;;;;5071049;28;20235;-72
2021/12/21 03:37:30;;;;;;;0.43;0.43;;;-3.70;99.90;;;;;;5053430;28;20590;-72
2021/12/21 03:39:55;;;;;;;1.43;1.33;;;-3.70;99.90;;;;;;5071617;28;20232;-72
2021/12/21 03:42:24;;;;;;;0.57;0.57;;;-3.70;99.90;;;;;;5071421;28;20199;-72
2021/12/21 03:44:49;;;;;;;0.20;0.20;;;-3.70;99.90;;;;;;5071630;28;20182;-72
2021/12/21 03:47:16;;;;;;;0.00;0.00;;;-3.70;99.90;;;;;;5071192;28;20179;-72
2021/12/21 03:52:17;;;;;;;0.73;0.73;;;-3.70;99.90;;;;;;5071142;28;20245;-72
2021/12/21 03:54:49;;;;;;;0.00;0.00;;;-3.70;99.90;;;;;;5106480;22;20262;-70
2021/12/21 03:57:16;;;;;;;0.10;0.10;;;-3.70;99.90;;;;;;5091132;28;20743;-70
2021/12/21 03:59:44;;;;;;;0.10;0.10;;;-3.70;99.90;;;;;;5091249;28;20306;-71
2021/12/21 04:02:12;;;;;;;0.30;0.30;;;-3.60;99.90;;;;;;5092079;28;20620;-69
2021/12/21 04:04:38;;;;;;;0.10;0.10;;;-3.60;99.90;;;;;;5103749;28;20191;-70
2021/12/21 04:07:05;;;;;;;0.33;0.33;;;-3.60;99.90;;;;;;5112128;28;20177;-71
2021/12/21 04:09:30;;;;;;;0.30;0.30;;;-3.50;99.90;;;;;;5112617;28;20499;-71
2021/12/21 04:11:56;;;;;;;1.10;0.57;;;-3.50;99.90;;;;;;5112476;28;20185;-70
2021/12/21 04:14:21;;;;;;;0.37;0.37;;;-3.60;99.90;;;;;;5111992;28;20280;-70
2021/12/21 04:16:47;;;;;;;0.37;0.37;;;-3.60;99.90;;;;;;5111637;28;20722;-70
2021/12/21 04:19:13;;;;;;;0.40;0.40;;;-3.70;99.90;;;;;;5112174;28;20684;-71
2021/12/21 04:21:40;;;;;;;0.20;0.20;;;-3.70;99.90;;;;;;5094008;28;20202;-71
2021/12/21 04:24:06;;;;;;;1.10;1.10;;;-3.70;99.90;;;;;;5094243;28;20623;-70
2021/12/21 04:26:32;;;;;;;0.30;0.30;;;-3.70;99.90;;;;;;5112474;28;20177;-70
2021/12/21 04:28:57;;;;;;;0.10;0.10;;;-3.70;99.90;;;;;;5112487;28;20174;-71
2021/12/21 04:31:23;;;;;;;0.10;0.10;;;-3.70;99.90;;;;;;5112251;28;20184;-70
2021/12/21 04:33:49;;;;;;;0.10;0.10;;;-3.80;99.90;;;;;;5094023;28;20252;-71
2021/12/21 04:36:15;;;;;;;0.00;0.00;;;-3.90;99.90;;;;;;5115473;28;20185;-70
2021/12/21 04:38:45;;;;;;;0.10;0.10;;;-3.90;99.90;;;;;;5091567;28;20728;-70
2021/12/21 04:41:22;;;;;;;0.20;0.20;;;-4.00;99.90;;;;;;5092402;28;20223;-70
2021/12/21 04:43:49;;;;;;;0.37;0.37;;;-4.00;99.90;;;;;;5091277;28;20228;-71
2021/12/21 04:46:14;;;;;;;0.13;0.13;;;-4.00;99.90;;;;;;5094501;28;20184;-70
2021/12/21 04:48:40;;;;;;;0.50;0.50;;;-4.10;99.90;;;;;;5096173;28;20176;-70
2021/12/21 04:51:05;;;;;;;0.30;0.30;;;-4.10;99.90;;;;;;5116347;28;20180;-70
2021/12/21 04:53:31;;;;;;;0.10;0.10;;;-4.20;99.90;;;;;;5111608;28;20263;-71
2021/12/21 04:55:57;;;;;;;0.10;0.10;;;-4.20;99.90;;;;;;5077706;28;20698;-70
2021/12/21 04:58:22;;;;;;;0.00;0.00;;;-4.20;99.90;;;;;;5078909;28;20236;-71
2021/12/21 05:00:49;;;;;;;0.10;0.10;;;-4.20;99.90;;;;;;5096454;28;20206;-71
2021/12/21 05:03:14;;;;;;;0.40;0.40;;;-4.20;99.90;;;;;;5077671;28;20245;-71
2021/12/21 05:05:40;;;;;;;2.50;2.30;;;-4.20;99.90;;;;;;5077565;28;20917;-71
2021/12/21 05:08:09;;;;;;;0.50;0.50;;;-4.20;99.90;;;;;;5077345;28;20183;-70
2021/12/21 05:10:43;;;;;;;0.03;0.03;;;-4.20;99.90;;;;;;5095445;28;20180;-72
2021/12/21 05:13:09;;;;;;;0.00;0.00;;;-4.20;99.90;;;;;;5076651;28;20190;-70
2021/12/21 05:15:35;;;;;;;0.10;0.10;;;-4.20;99.90;;;;;;5076382;28;20250;-70
2021/12/21 05:18:00;;;;;;;0.40;0.40;;;-4.20;99.90;;;;;;5094809;28;20260;-71
2021/12/21 05:20:26;;;;;;;0.00;0.00;;;-4.30;99.90;;;;;;5094636;28;20304;-71
2021/12/21 05:22:51;;;;;;;0.27;0.27;;;-4.30;99.90;;;;;;5094713;28;20197;-71
2021/12/21 05:25:17;;;;;;;0.20;0.20;;;-4.30;99.90;;;;;;5094828;28;20192;-71
2021/12/21 05:27:44;;;;;;;0.10;0.10;;;-4.30;99.90;;;;;;5094319;28;20675;-70
2021/12/21 05:30:10;;;;;;;0.30;0.30;;;-4.30;99.90;;;;;;5095198;28;20545;-70
2021/12/21 05:32:35;;;;;;;0.10;0.10;;;-4.30;99.90;;;;;;5095120;28;20185;-70
2021/12/21 05:35:01;;;;;;;0.00;0.00;;;-4.30;99.90;;;;;;5095468;28;20199;-71
2021/12/21 05:37:27;;;;;;;0.00;0.00;;;-4.30;99.90;;;;;;5094763;28;20176;-71
2021/12/21 05:40:11;;;;;;;0.00;0.00;;;-4.30;99.90;;;;;;5094855;28;20177;-72
2021/12/21 05:42:36;;;;;;;0.00;0.00;;;-4.40;99.90;;;;;;5083548;28;20181;-70
2021/12/21 05:45:03;;;;;;;0.10;0.10;;;-4.40;99.90;;;;;;5093737;28;20277;-70
2021/12/21 05:47:29;;;;;;;0.80;0.80;;;-4.40;99.90;;;;;;5084121;28;20619;-70
2021/12/21 05:49:54;;;;;;;0.30;0.30;;;-4.40;99.90;;;;;;5114145;28;20280;-70
2021/12/21 05:52:20;;;;;;;1.03;1.03;;;-4.50;99.90;;;;;;5115326;28;20208;-70
2021/12/21 05:54:46;;;;;;;0.10;0.10;;;-4.40;99.90;;;;;;5114923;28;20603;-71
2021/12/21 05:57:11;;;;;;;0.00;0.00;;;-4.40;99.90;;;;;;5113006;28;20173;-71
2021/12/21 05:59:37;;;;;;;0.53;0.53;;;-4.40;99.90;;;;;;5114881;28;20190;-69
2021/12/21 06:02:03;;;;;;;0.30;0.30;;;-4.40;99.90;;;;;;5114457;28;20292;-70
2021/12/21 06:04:28;;;;;;;0.53;0.53;;;-4.40;99.90;;;;;;5114829;28;20680;-70
2021/12/21 06:06:54;;;;;;;0.13;0.13;;;-4.40;99.90;;;;;;5113834;28;20163;-71
2021/12/21 06:09:20;;;;;;;1.43;1.40;;;-4.50;99.90;;;;;;5114175;28;20168;-69
2021/12/21 06:12:02;;;;;;;0.53;0.53;;;-4.50;99.90;;;;;;5113968;28;20221;-69
2021/12/21 06:27:45;;;;;;;0.10;0.10;;;-4.60;99.90;;;;;;5113643;28;20424;-70
2021/12/21 06:30:12;;;;;;;0.10;0.10;;;-4.60;99.90;;;;;;5113883;28;20401;-70
2021/12/21 06:32:38;;;;;;;0.20;0.20;;;-4.70;99.90;;;;;;5113569;28;20634;-70
2021/12/21 06:35:04;;;;;;;0.00;0.00;;;-4.70;99.90;;;;;;5113798;28;20773;-70
2021/12/21 06:37:30;;;;;;;0.10;0.10;;;-4.70;99.90;;;;;;5112989;28;20414;-70
2021/12/21 06:39:56;;;;;;;1.13;1.13;;;-4.80;99.90;;;;;;5100813;28;20417;-70
2021/12/21 06:42:22;;;;;;;0.10;0.10;;;-4.70;99.90;;;;;;5092854;28;20716;-70
2021/12/21 06:44:54;;;;;;;2.37;1.80;;;-4.60;99.90;;;;;;5092536;28;20191;-70
2021/12/21 06:52:48;;;;;;;0.80;0.80;;;-4.60;99.90;;;;;;5113574;28;20483;-71
2021/12/21 06:55:14;;;;;;;0.10;0.10;;;-4.60;99.90;;;;;;5113116;28;20243;-70
2021/12/21 06:57:43;;;;;;;0.57;0.33;;;-4.50;99.90;;;;;;5112363;28;20644;-71
2021/12/21 07:00:15;;;;;;;13.13;1.53;;;-4.50;99.90;;;;;;5094789;28;20186;-70
2021/12/21 07:02:41;;;;;;;0.30;0.30;;;-4.50;99.90;;;;;;5112962;28;20500;-69
2021/12/21 07:05:09;;;;;;;0.10;0.10;;;-4.50;99.90;;;;;;5113045;28;20237;-69
2021/12/21 07:07:34;;;;;;;0.10;0.10;;;-4.60;99.90;;;;;;5112123;28;20200;-71
2021/12/21 07:10:04;;;;;;;0.00;0.00;;;-4.60;99.90;;;;;;5112938;28;20565;-70
2021/12/21 07:20:25;;;;;;;0.10;0.10;;;-4.70;99.90;;;;;;5112705;28;20195;-69
2021/12/21 07:22:51;;;;;;;0.30;0.30;;;-4.70;99.90;;;;;;5112672;28;20993;-70
2021/12/21 07:25:16;;;;;;;1.33;1.23;;;-4.60;99.90;;;;;;5094324;28;20206;-70
2021/12/21 07:27:42;;;;;;;1.27;1.23;;;-4.60;99.90;;;;;;5112191;28;20543;-70
2021/12/21 07:30:09;;;;;;;2.37;2.20;;;-4.60;99.90;;;;;;5112654;28;20173;-70
2021/12/21 07:32:34;;;;;;;0.30;0.30;;;-4.60;99.90;;;;;;5093812;28;20264;-70
2021/12/21 07:35:00;;;;;;;0.37;0.37;;;-4.60;99.90;;;;;;5112446;28;20510;-70
2021/12/21 07:37:26;;;;;;;0.10;0.10;;;-4.60;99.90;;;;;;5111923;28;20784;-70
2021/12/21 07:39:52;;;;;;;0.20;0.20;;;-4.50;99.90;;;;;;5081719;28;20172;-70
2021/12/21 07:42:19;;;;;;;3.00;1.90;;;-4.50;99.90;;;;;;5091991;28;20292;-71
2021/12/21 07:44:45;;;;;;;1.70;0.27;;;-4.50;99.90;;;;;;5091638;28;20192;-70
2021/12/21 07:47:11;;;;;;;0.10;0.10;;;-4.50;99.90;;;;;;5096806;28;20459;-70
2021/12/21 07:49:37;;;;;;;3.80;1.23;;;-4.50;99.90;;;;;;5093731;28;20187;-71
2021/12/21 07:52:07;;;;;;;0.67;0.37;;;-4.50;99.90;;;;;;5112016;28;20177;-71
2021/12/21 07:54:33;;;;;;;0.10;0.10;;;-4.40;99.90;;;;;;5111769;28;20451;-71
2021/12/21 07:56:58;;;;;;;0.20;0.20;;;-4.40;99.90;;;;;;5111632;28;20411;-71
2021/12/21 07:59:24;;;;;;;0.93;0.93;;;-4.30;99.90;;;;;;5093693;28;20181;-72
2021/12/21 08:01:50;;;;;;;0.10;0.10;;;-4.20;99.90;;;;;;5093248;28;20671;-69
2021/12/21 08:04:16;;;;;;;0.10;0.10;;;-4.10;99.90;;;;;;5111904;28;20198;-70
2021/12/21 08:06:45;;;;;;;0.40;0.40;;;-3.90;99.90;;;;;;5106253;28;20407;-71
2021/12/21 08:09:10;;;;;;;0.10;0.10;;;-3.80;99.90;;;;;;5091509;28;20945;-70
2021/12/21 08:14:03;;;;;;;2.00;1.90;;;-3.50;99.90;;;;;;5091739;28;20208;-70
2021/12/21 08:16:29;;;;;;;0.30;0.30;;;-3.40;99.90;;;;;;5090961;28;20174;-71
2021/12/21 08:18:55;;;;;;;0.30;0.30;;;-3.30;99.90;;;;;;5104050;28;20839;-70
2021/12/21 08:21:22;;;;;;;0.40;0.17;;;-3.20;99.90;;;;;;5092808;28;20265;-70
2021/12/21 08:23:48;;;;;;;0.40;0.40;;;-3.10;99.90;;;;;;5111700;28;20218;-71
2021/12/21 08:26:14;;;;;;;1.07;1.07;;;-2.90;99.90;;;;;;5111335;28;20207;-70
2021/12/21 08:28:39;;;;;;;0.10;0.10;;;-2.80;99.90;;;;;;5111776;28;20634;-70
2021/12/21 08:31:09;;;;;;;0.30;0.30;;;-2.70;99.90;;;;;;5111554;28;20187;-71
2021/12/21 08:33:36;;;;;;;0.93;0.93;;;-2.60;99.90;;;;;;5093755;28;20266;-70
2021/12/21 08:36:02;;;;;;;3.83;3.53;;;-2.50;99.90;;;;;;5111639;28;20171;-70
2021/12/21 08:38:30;;;;;;;0.30;0.30;;;-2.40;99.90;;;;;;5092944;28;20192;-70
2021/12/21 08:40:58;;;;;;;0.10;0.10;;;-2.20;99.90;;;;;;5073000;28;20573;-70
2021/12/21 08:43:25;;;;;;;0.20;0.20;;;-2.10;99.90;;;;;;5090815;28;20166;-70
2021/12/21 08:45:52;;;;;;;0.20;0.20;;;-2.00;99.90;;;;;;5090641;28;20345;-70
2021/12/21 08:48:19;;;;;;;0.17;0.17;;;-1.90;99.90;;;;;;5106160;28;20530;-71
2021/12/21 08:50:46;;;;;;;2.47;2.30;;;-1.80;99.90;;;;;;5111666;28;20627;-71
2021/12/21 08:53:15;;;;;;;0.30;0.30;;;-1.60;99.90;;;;;;5111291;28;20266;-70
2021/12/21 08:55:42;;;;;;;0.63;0.63;;;-1.60;99.90;;;;;;5111127;28;20179;-71
2021/12/21 08:58:09;;;;;;;0.13;0.13;;;-1.50;99.90;;;;;;5110896;28;20175;-70
2021/12/21 09:00:35;;;;;;;0.73;0.73;;;-1.30;99.90;;;;;;5093027;28;20209;-71
2021/12/21 09:03:01;;;;;;;0.20;0.20;;;-1.20;99.90;;;;;;5111450;28;20255;-71
2021/12/21 09:05:30;;;;;;;3.10;2.30;;;-1.10;99.90;;;;;;5111403;28;20188;-70
2021/12/21 09:07:55;;;;;;;0.20;0.20;;;-1.00;99.90;;;;;;5110852;28;20179;-70
2021/12/21 09:10:23;;;;;;;0.67;0.60;;;-1.00;99.90;;;;;;5111194;28;20178;-72
2021/12/21 09:12:50;;;;;;;1.83;0.73;;;-0.80;99.90;;;;;;5092683;28;20615;-71
2021/12/21 09:15:17;;;;;;;5.30;3.03;;;-0.80;99.90;;;;;;5092959;28;20278;-70
2021/12/21 09:17:44;;;;;;;0.77;0.77;;;-0.80;99.90;;;;;;5092619;28;20185;-70
2021/12/21 09:20:15;;;;;;;0.10;0.10;;;-0.60;99.90;;;;;;5092837;28;20172;-71
2021/12/21 09:22:41;;;;;;;0.10;0.10;;;-0.50;99.90;;;;;;5111050;28;20220;-70
2021/12/21 09:25:08;;;;;;;0.50;0.50;;;-0.50;99.90;;;;;;5110955;28;20183;-70
2021/12/21 09:27:34;;;;;;;3.10;1.13;;;-0.60;99.90;;;;;;5110988;28;20725;-71
2021/12/21 09:29:59;;;;;;;2.67;0.70;;;-0.60;99.90;;;;;;5111106;28;20270;-71
2021/12/21 09:32:25;;;;;;;0.60;0.60;;;-0.40;99.90;;;;;;5111936;28;20187;-71
2021/12/21 09:34:51;;;;;;;0.87;0.87;;;-0.30;99.90;;;;;;5114878;28;20282;-71
2021/12/21 09:37:19;;;;;;;0.23;0.23;;;-0.40;99.90;;;;;;5095937;28;20175;-72
2021/12/21 09:39:48;;;;;;;0.07;0.07;;;-0.40;99.90;;;;;;5103171;28;20195;-71
2021/12/21 09:42:16;;;;;;;0.30;0.30;;;-0.50;99.90;;;;;;5094101;28;20613;-70
2021/12/21 09:44:42;;;;;;;0.30;0.30;;;-0.60;99.90;;;;;;5093801;28;20203;-71
2021/12/21 09:47:10;;;;;;;0.63;0.63;;;-0.70;99.90;;;;;;5099024;28;20243;-71
2021/12/21 09:49:37;;;;;;;0.73;0.73;;;-0.50;99.90;;;;;;5114413;28;20196;-72
2021/12/21 09:52:03;;;;;;;0.10;0.10;;;-0.40;99.90;;;;;;5114504;28;20183;-71
2021/12/21 09:54:32;;;;;;;0.20;0.20;;;-0.40;99.90;;;;;;5123034;22;20202;-71
2021/12/21 09:56:57;;;;;;;0.50;0.50;;;-0.40;99.90;;;;;;5015352;28;20547;-71
2021/12/21 09:59:23;;;;;;;2.03;0.93;;;-0.40;99.90;;;;;;4999230;28;20185;-72
2021/12/21 10:01:49;;;;;;;0.20;0.20;;;-0.20;99.90;;;;;;5016995;28;20256;-71
2021/12/21 10:04:14;;;;;;;0.77;0.73;;;-0.10;99.90;;;;;;5017126;28;20202;-72
2021/12/21 10:06:49;;;;;;;1.50;0.30;;;-0.10;99.90;;;;;;5017460;28;20198;-72
2021/12/21 10:09:16;;;;;;;0.30;0.30;;;0.00;99.90;;;;;;5000515;28;20625;-72
2021/12/21 10:11:48;;;;;;;1.60;1.03;;;0.10;99.90;;;;;;5018299;28;20178;-72
2021/12/21 10:14:16;;;;;;;0.53;0.53;;;0.20;99.90;;;;;;5001162;28;20797;-71
2021/12/21 10:16:42;;;;;;;2.63;0.87;;;0.30;99.90;;;;;;5000610;28;20182;-72
2021/12/21 10:19:19;;;;;;;0.67;0.67;;;0.40;99.90;;;;;;5015305;28;20691;-71
2021/12/21 10:21:46;;;;;;;6.80;2.20;;;0.60;99.90;;;;;;5014932;28;20264;-71
2021/12/21 10:24:26;;;;;;;0.17;0.17;;;0.80;99.90;;;;;;5015125;28;20183;-72
2021/12/21 10:27:04;;;;;;;0.20;0.20;;;0.90;99.90;;;;;;4996969;28;20209;-72
2021/12/21 10:29:49;;;;;;;0.30;0.20;;;1.00;99.90;;;;;;5015018;28;20197;-71
2021/12/21 10:32:22;;;;;;;0.63;0.63;;;1.00;99.90;;;;;;4997178;28;20182;-71
2021/12/21 10:34:57;;;;;;;0.20;0.20;;;1.10;99.90;;;;;;5014749;28;20206;-72
2021/12/21 10:37:32;;;;;;;1.70;1.47;;;1.20;99.90;;;;;;4996748;28;20213;-72
2021/12/21 10:40:28;;;;;;;0.07;0.07;;;1.20;99.90;;;;;;5014916;28;20217;-72
2021/12/21 10:42:55;;;;;;;0.73;0.73;;;1.20;99.90;;;;;;4996984;28;20731;-72
2021/12/21 10:45:30;;;;;;;0.10;0.10;;;1.30;99.90;;;;;;4997346;28;20202;-73
2021/12/21 10:47:56;;;;;;;1.63;0.80;;;1.50;99.90;;;;;;5014174;28;20170;-72
2021/12/21 10:50:22;;;;;;;1.53;1.20;;;1.60;99.90;;;;;;4997258;28;20183;-72
2021/12/21 10:52:53;;;;;;;1.10;1.10;;;1.70;99.90;;;;;;5014017;28;20236;-72
2021/12/21 10:55:45;;;;;;;0.50;0.50;;;1.90;99.90;;;;;;4996647;28;20210;-72
2021/12/21 10:58:15;;;;;;;0.53;0.53;;;2.10;99.90;;;;;;5012325;28;20190;-73
2021/12/21 11:00:53;;;;;;;0.50;0.50;;;2.20;99.90;;;;;;5014362;28;20191;-71
2021/12/21 11:03:31;;;;;;;1.13;1.13;;;2.30;99.90;;;;;;5014491;28;20768;-72
2021/12/21 11:06:12;;;;;;;0.50;0.50;;;2.60;99.90;;;;;;5014154;28;20571;-72
2021/12/21 11:08:39;;;;;;;0.13;0.13;;;2.90;99.90;;;;;;5014390;28;20167;-72
2021/12/21 11:11:10;;;;;;;1.63;1.60;;;3.00;99.90;;;;;;4998670;28;20179;-72
2021/12/21 11:13:37;;;;;;;1.43;1.33;;;3.30;99.90;;;;;;5033601;28;20171;-72
2021/12/21 11:16:06;;;;;;;0.30;0.30;;;3.60;99.90;;;;;;5034469;28;20274;-71
2021/12/21 11:18:36;;;;;;;1.43;1.17;;;4.20;99.90;;;;;;5034039;28;20176;-72
2021/12/21 11:21:04;;;;;;;8.90;1.30;;;4.60;99.90;;;;;;5034310;28;20598;-72
2021/12/21 11:23:30;;;;;;;0.30;0.30;;;4.80;99.90;;;;;;5033858;28;20588;-71
2021/12/21 11:25:58;;;;;;;0.67;0.40;;;5.10;99.90;;;;;;5033417;28;20235;-72
2021/12/21 11:28:29;;;;;;;0.67;0.50;;;5.50;99.90;;;;;;5033844;28;20193;-71
2021/12/21 11:30:59;;;;;;;0.30;0.30;;;5.70;99.90;;;;;;5015680;28;20192;-72
2021/12/21 11:33:26;;;;;;;0.63;0.63;;;5.70;99.90;;;;;;5015350;28;20185;-72
2021/12/21 11:38:38;;;;;;;0.43;0.43;;;5.70;99.90;;;;;;5030619;28;20176;-70
2021/12/21 11:41:04;;;;;;;0.20;0.20;;;4.50;99.90;;;;;;5015496;28;20289;-72
2021/12/21 11:43:47;;;;;;;1.00;1.00;;;3.50;99.90;;;;;;4996477;28;20182;-71
2021/12/21 11:46:18;;;;;;;1.03;0.93;;;2.80;99.90;;;;;;5017407;28;20184;-71
2021/12/21 11:48:48;;;;;;;0.10;0.10;;;2.50;99.90;;;;;;5019343;28;20201;-72
2021/12/21 11:51:14;;;;;;;0.30;0.30;;;2.30;99.90;;;;;;5002491;28;20187;-71
2021/12/21 11:53:41;;;;;;;0.10;0.10;;;2.20;99.90;;;;;;5019309;28;20641;-72
2021/12/21 11:56:15;;;;;;;0.50;0.50;;;2.20;99.90;;;;;;5019158;28;20695;-72
2021/12/21 11:58:42;;;;;;;0.30;0.30;;;2.10;99.90;;;;;;5001762;28;20217;-71
2021/12/21 12:01:20;;;;;;;2.50;2.30;;;2.10;99.90;;;;;;4998246;28;20202;-72
2021/12/21 12:03:58;;;;;;;0.07;0.07;;;2.00;99.90;;;;;;5012983;28;20239;-72
2021/12/21 12:06:23;;;;;;;1.37;1.10;;;2.10;99.90;;;;;;5012549;28;20220;-73
2021/12/21 12:08:52;;;;;;;0.10;0.10;;;2.30;99.90;;;;;;5012395;28;20254;-72
2021/12/21 12:11:35;;;;;;;2.37;1.60;;;2.50;99.90;;;;;;4995036;28;20206;-73
2021/12/21 12:14:17;;;;;;;7.20;1.17;;;3.10;99.90;;;;;;5012412;28;20203;-73
2021/12/21 12:16:55;;;;;;;0.20;0.20;;;3.80;99.90;;;;;;5011546;28;20253;-73
2021/12/21 12:19:31;;;;;;;0.63;0.57;;;3.60;99.90;;;;;;5012056;28;20191;-73
2021/12/21 12:22:01;;;;;;;0.20;0.20;;;3.50;99.90;;;;;;5011714;28;20648;-72
2021/12/21 12:24:33;;;;;;;0.47;0.47;;;4.40;99.90;;;;;;5012272;28;20262;-73
2021/12/21 12:27:23;;;;;;;0.50;0.50;;;5.20;99.90;;;;;;5013520;28;20193;-72
2021/12/21 12:29:53;;;;;;;0.67;0.67;;;4.70;99.90;;;;;;4989940;28;20746;-73
2021/12/21 12:32:33;;;;;;;0.87;0.67;;;4.40;99.90;;;;;;5012241;28;20242;-71
2021/12/21 12:35:21;;;;;;;5.80;1.60;;;4.00;99.90;;;;;;5012098;28;20212;-69
2021/12/21 12:38:20;;;;;;;0.47;0.47;;;3.80;99.90;;;;;;4994117;28;20250;-70
2021/12/21 12:40:56;;;;;;;1.73;1.27;;;3.30;99.90;;;;;;5003934;28;20223;-72
2021/12/21 12:43:32;;;;;;;0.50;0.50;;;3.10;99.90;;;;;;5013315;28;20191;-73
2021/12/21 12:46:04;;;;;;;0.43;0.43;;;3.20;99.90;;;;;;4993976;28;20298;-74
2021/12/21 12:48:32;;;;;;;0.43;0.43;;;3.70;99.90;;;;;;5011494;28;20578;-71
2021/12/21 12:51:02;;;;;;;0.10;0.10;;;4.00;99.90;;;;;;4994453;28;20186;-71
2021/12/21 12:53:40;;;;;;;0.50;0.50;;;4.40;99.90;;;;;;5012049;28;20232;-74
2021/12/21 12:56:06;;;;;;;0.33;0.33;;;4.70;99.90;;;;;;5012863;28;20328;-71
2021/12/21 12:58:35;;;;;;;0.80;0.80;;;5.10;99.90;;;;;;4996533;28;20190;-71
2021/12/21 13:01:04;;;;;;;1.43;1.40;;;5.70;99.90;;;;;;4994977;28;20720;-72
2021/12/21 13:03:36;;;;;;;2.20;2.00;;;5.70;99.90;;;;;;5011523;28;20684;-71
2021/12/21 13:06:08;;;;;;;0.70;0.70;;;5.70;99.90;;;;;;5011794;28;20279;-71
2021/12/21 13:08:34;;;;;;;1.90;1.80;;;6.20;99.90;;;;;;5015354;28;20310;-71
2021/12/21 13:11:01;;;;;;;1.53;1.53;;;6.70;99.90;;;;;;5016606;28;20240;-71
2021/12/21 13:13:43;;;;;;;1.03;0.97;;;7.60;99.90;;;;;;5020693;28;20249;-72
2021/12/21 13:16:14;;;;;;;0.63;0.63;;;8.60;99.90;;;;;;5018411;28;20713;-72
2021/12/21 13:19:01;;;;;;;2.10;0.50;;;9.40;99.90;;;;;;5002723;28;20842;-71
2021/12/21 13:21:36;;;;;;;0.40;0.40;;;9.70;99.90;;;;;;5020616;28;20293;-72
2021/12/21 13:24:09;;;;;;;1.03;1.00;;;10.00;99.90;;;;;;5021921;28;20241;-72
2021/12/21 13:26:48;;;;;;;3.30;2.20;;;9.70;99.90;;;;;;5015898;28;20178;-71
2021/12/21 13:29:16;;;;;;;2.00;1.10;;;9.60;99.90;;;;;;4997592;28;20182;-72
2021/12/21 13:31:43;;;;;;;0.70;0.70;;;10.10;99.90;;;;;;5015035;28;20253;-72
2021/12/21 13:34:09;;;;;;;1.30;1.20;;;10.10;99.90;;;;;;4997487;28;20186;-70
2021/12/21 13:36:49;;;;;;;1.30;0.97;;;9.90;99.90;;;;;;5014538;28;20185;-72
2021/12/21 13:39:16;;;;;;;10.67;1.57;;;10.00;99.90;;;;;;5014732;28;20273;-72
2021/12/21 13:41:51;;;;;;;0.23;0.23;;;9.90;99.90;;;;;;5027104;28;20202;-72
2021/12/21 13:44:24;;;;;;;0.60;0.60;;;10.00;99.90;;;;;;5034658;28;20169;-72
2021/12/21 13:46:50;;;;;;;2.13;1.47;;;9.90;99.90;;;;;;5013335;28;20186;-73
2021/12/21 13:49:16;;;;;;;1.00;1.00;;;10.40;99.90;;;;;;5015269;28;20174;-72
2021/12/21 13:51:53;;;;;;;4.30;2.70;;;10.90;99.90;;;;;;4998378;28;20665;-73
2021/12/21 13:54:20;;;;;;;4.43;1.70;;;11.50;99.90;;;;;;5014773;28;20244;-73
2021/12/21 13:56:46;;;;;;;0.50;0.50;;;11.90;99.90;;;;;;5014527;28;20666;-73
2021/12/21 13:59:13;;;;;;;5.73;0.80;;;11.40;99.90;;;;;;5014530;28;20185;-72
2021/12/21 14:01:40;;;;;;;1.40;1.03;;;10.50;99.90;;;;;;5014360;28;20206;-70
2021/12/21 14:04:11;;;;;;;2.73;1.67;;;9.70;99.90;;;;;;4996954;28;20281;-72
2021/12/21 14:06:39;;;;;;;0.97;0.97;;;9.20;99.90;;;;;;5013798;28;20178;-72
2021/12/21 14:09:08;;;;;;;0.30;0.30;;;8.80;99.90;;;;;;5014747;28;20646;-71
2021/12/21 14:11:37;;;;;;;0.87;0.87;;;8.60;99.90;;;;;;5015789;28;20178;-71
2021/12/21 14:14:15;;;;;;;2.20;1.00;;;8.00;99.90;;;;;;5014907;28;20597;-72
2021/12/21 14:16:43;;;;;;;0.83;0.83;;;7.50;99.90;;;;;;5014786;28;20178;-71